Terminal Aerodrome Forecast
Issued by NWS

Home | Current Version | Previous Version | Graphics & Text | Print | Product List | Glossary On
Versions: 1 2 3 4 5 6 7 8 9 10 11 12 13 14 15 16 17 18 19 20 21 22 23 24
000
FTUS43 KICT 251157 AAA
TAFCNU
TAF AMD
KCNU 251157Z 2512/2612 15006KT P6SM SCT100
     FM251600 13006KT P6SM SCT050 SCT100
     FM260000 16008KT P6SM VCTS SCT035CB BKN100=

USA.gov is the U.S. government's official web portal to all federal, state and local government web resources and services.